sensor_id;sensor_type;location;lat;lon;timestamp;P1;durP1;ratioP1;P2;durP2;ratioP2
46308;SDS011;32037;50.820;6.494;2023-12-29T00:01:16;3.17;;;1.30;;
46308;SDS011;32037;50.820;6.494;2023-12-29T00:03:44;1.60;;;0.83;;
46308;SDS011;32037;50.820;6.494;2023-12-29T00:06:13;1.50;;;0.90;;
46308;SDS011;32037;50.820;6.494;2023-12-29T00:08:42;1.60;;;0.97;;
46308;SDS011;32037;50.820;6.494;2023-12-29T00:11:16;2.20;;;1.20;;
46308;SDS011;32037;50.820;6.494;2023-12-29T00:13:44;2.23;;;1.13;;
46308;SDS011;32037;50.820;6.494;2023-12-29T00:16:12;1.90;;;1.10;;
46308;SDS011;32037;50.820;6.494;2023-12-29T00:18:40;2.30;;;1.57;;
46308;SDS011;32037;50.820;6.494;2023-12-29T00:21:09;2.87;;;1.00;;
46308;SDS011;32037;50.820;6.494;2023-12-29T00:23:39;2.63;;;1.10;;
46308;SDS011;32037;50.820;6.494;2023-12-29T00:26:08;5.83;;;1.97;;
46308;SDS011;32037;50.820;6.494;2023-12-29T00:28:37;2.87;;;1.30;;
46308;SDS011;32037;50.820;6.494;2023-12-29T00:31:06;1.93;;;1.20;;
46308;SDS011;32037;50.820;6.494;2023-12-29T00:33:35;2.77;;;1.50;;
46308;SDS011;32037;50.820;6.494;2023-12-29T00:36:03;1.80;;;1.20;;
46308;SDS011;32037;50.820;6.494;2023-12-29T00:38:32;2.47;;;1.23;;
46308;SDS011;32037;50.820;6.494;2023-12-29T00:41:01;3.43;;;1.07;;
46308;SDS011;32037;50.820;6.494;2023-12-29T00:43:32;1.70;;;1.20;;
46308;SDS011;32037;50.820;6.494;2023-12-29T00:46:00;3.53;;;1.27;;
46308;SDS011;32037;50.820;6.494;2023-12-29T00:48:29;2.90;;;1.10;;
46308;SDS011;32037;50.820;6.494;2023-12-29T00:50:58;2.97;;;1.10;;
46308;SDS011;32037;50.820;6.494;2023-12-29T00:53:28;3.43;;;1.20;;
46308;SDS011;32037;50.820;6.494;2023-12-29T00:55:58;2.47;;;1.70;;
46308;SDS011;32037;50.820;6.494;2023-12-29T00:58:28;2.10;;;1.10;;
46308;SDS011;32037;50.820;6.494;2023-12-29T01:00:56;2.87;;;1.33;;
46308;SDS011;32037;50.820;6.494;2023-12-29T01:03:25;3.23;;;1.40;;
46308;SDS011;32037;50.820;6.494;2023-12-29T01:05:53;2.17;;;0.97;;
46308;SDS011;32037;50.820;6.494;2023-12-29T01:08:21;2.90;;;1.23;;
46308;SDS011;32037;50.820;6.494;2023-12-29T01:10:49;2.97;;;1.60;;
46308;SDS011;32037;50.820;6.494;2023-12-29T01:13:17;3.37;;;1.23;;
46308;SDS011;32037;50.820;6.494;2023-12-29T01:15:46;2.60;;;0.80;;
46308;SDS011;32037;50.820;6.494;2023-12-29T01:18:14;3.00;;;1.63;;
46308;SDS011;32037;50.820;6.494;2023-12-29T01:20:43;1.60;;;1.27;;
46308;SDS011;32037;50.820;6.494;2023-12-29T01:23:11;3.43;;;1.50;;
46308;SDS011;32037;50.820;6.494;2023-12-29T01:25:39;3.60;;;1.30;;
46308;SDS011;32037;50.820;6.494;2023-12-29T01:28:07;2.90;;;1.50;;
46308;SDS011;32037;50.820;6.494;2023-12-29T01:30:35;3.23;;;1.40;;
46308;SDS011;32037;50.820;6.494;2023-12-29T01:33:05;3.17;;;1.17;;
46308;SDS011;32037;50.820;6.494;2023-12-29T01:35:34;2.40;;;0.90;;
46308;SDS011;32037;50.820;6.494;2023-12-29T01:38:03;3.80;;;1.30;;
46308;SDS011;32037;50.820;6.494;2023-12-29T01:40:31;2.33;;;1.40;;
46308;SDS011;32037;50.820;6.494;2023-12-29T01:42:59;3.13;;;1.30;;
46308;SDS011;32037;50.820;6.494;2023-12-29T01:45:28;2.00;;;1.17;;
46308;SDS011;32037;50.820;6.494;2023-12-29T01:47:57;3.33;;;1.40;;
46308;SDS011;32037;50.820;6.494;2023-12-29T01:50:26;2.83;;;1.20;;
46308;SDS011;32037;50.820;6.494;2023-12-29T01:52:55;2.20;;;0.97;;
46308;SDS011;32037;50.820;6.494;2023-12-29T01:55:23;3.63;;;1.30;;
46308;SDS011;32037;50.820;6.494;2023-12-29T01:57:53;2.10;;;1.30;;
46308;SDS011;32037;50.820;6.494;2023-12-29T02:00:23;1.83;;;1.30;;
46308;SDS011;32037;50.820;6.494;2023-12-29T02:02:51;3.20;;;1.30;;
46308;SDS011;32037;50.820;6.494;2023-12-29T02:05:20;1.70;;;0.90;;
46308;SDS011;32037;50.820;6.494;2023-12-29T02:07:50;2.80;;;1.33;;
46308;SDS011;32037;50.820;6.494;2023-12-29T02:10:19;3.73;;;1.60;;
46308;SDS011;32037;50.820;6.494;2023-12-29T02:12:49;4.10;;;1.30;;
46308;SDS011;32037;50.820;6.494;2023-12-29T02:15:21;3.23;;;1.27;;
46308;SDS011;32037;50.820;6.494;2023-12-29T02:17:51;5.00;;;1.37;;
46308;SDS011;32037;50.820;6.494;2023-12-29T02:20:30;2.77;;;1.30;;
46308;SDS011;32037;50.820;6.494;2023-12-29T02:23:00;3.23;;;1.37;;
46308;SDS011;32037;50.820;6.494;2023-12-29T02:25:31;3.43;;;1.20;;
46308;SDS011;32037;50.820;6.494;2023-12-29T02:28:00;1.90;;;1.10;;
46308;SDS011;32037;50.820;6.494;2023-12-29T02:30:37;2.50;;;1.20;;
46308;SDS011;32037;50.820;6.494;2023-12-29T02:33:10;4.07;;;1.30;;
46308;SDS011;32037;50.820;6.494;2023-12-29T02:35:44;3.17;;;1.17;;
46308;SDS011;32037;50.820;6.494;2023-12-29T02:38:13;2.20;;;1.47;;
46308;SDS011;32037;50.820;6.494;2023-12-29T02:40:43;4.27;;;1.30;;
46308;SDS011;32037;50.820;6.494;2023-12-29T02:43:11;6.63;;;1.40;;
46308;SDS011;32037;50.820;6.494;2023-12-29T02:45:39;5.13;;;1.17;;
46308;SDS011;32037;50.820;6.494;2023-12-29T02:48:08;2.73;;;1.50;;
46308;SDS011;32037;50.820;6.494;2023-12-29T02:50:37;3.60;;;1.40;;
46308;SDS011;32037;50.820;6.494;2023-12-29T02:53:05;4.00;;;1.40;;
46308;SDS011;32037;50.820;6.494;2023-12-29T02:55:34;4.20;;;1.40;;
46308;SDS011;32037;50.820;6.494;2023-12-29T02:58:03;2.60;;;1.43;;
46308;SDS011;32037;50.820;6.494;2023-12-29T03:00:31;2.60;;;1.40;;
46308;SDS011;32037;50.820;6.494;2023-12-29T03:03:00;2.03;;;1.80;;
46308;SDS011;32037;50.820;6.494;2023-12-29T03:05:28;3.23;;;1.87;;
46308;SDS011;32037;50.820;6.494;2023-12-29T03:07:56;2.30;;;1.50;;
46308;SDS011;32037;50.820;6.494;2023-12-29T03:10:24;4.87;;;1.53;;
46308;SDS011;32037;50.820;6.494;2023-12-29T03:12:53;2.43;;;2.13;;
46308;SDS011;32037;50.820;6.494;2023-12-29T03:15:22;3.90;;;1.27;;
46308;SDS011;32037;50.820;6.494;2023-12-29T03:17:50;1.53;;;1.10;;
46308;SDS011;32037;50.820;6.494;2023-12-29T03:20:19;3.50;;;1.57;;
46308;SDS011;32037;50.820;6.494;2023-12-29T03:22:47;2.33;;;1.10;;
46308;SDS011;32037;50.820;6.494;2023-12-29T03:25:15;3.87;;;1.20;;
46308;SDS011;32037;50.820;6.494;2023-12-29T03:27:43;3.87;;;2.23;;
46308;SDS011;32037;50.820;6.494;2023-12-29T03:30:11;3.60;;;1.20;;
46308;SDS011;32037;50.820;6.494;2023-12-29T03:32:43;2.63;;;1.07;;
46308;SDS011;32037;50.820;6.494;2023-12-29T03:35:12;1.63;;;0.93;;
46308;SDS011;32037;50.820;6.494;2023-12-29T03:37:40;2.03;;;1.27;;
46308;SDS011;32037;50.820;6.494;2023-12-29T03:40:08;3.90;;;1.40;;
46308;SDS011;32037;50.820;6.494;2023-12-29T03:42:37;2.30;;;1.47;;
46308;SDS011;32037;50.820;6.494;2023-12-29T03:45:06;2.93;;;1.60;;
46308;SDS011;32037;50.820;6.494;2023-12-29T03:47:35;1.83;;;1.10;;
46308;SDS011;32037;50.820;6.494;2023-12-29T03:50:05;2.37;;;0.80;;
46308;SDS011;32037;50.820;6.494;2023-12-29T03:52:34;2.67;;;1.07;;
46308;SDS011;32037;50.820;6.494;2023-12-29T03:55:03;3.27;;;1.40;;
46308;SDS011;32037;50.820;6.494;2023-12-29T03:57:32;2.47;;;1.53;;
46308;SDS011;32037;50.820;6.494;2023-12-29T04:00:00;3.70;;;1.50;;
46308;SDS011;32037;50.820;6.494;2023-12-29T04:02:37;3.20;;;1.63;;
46308;SDS011;32037;50.820;6.494;2023-12-29T04:05:08;3.50;;;0.90;;
46308;SDS011;32037;50.820;6.494;2023-12-29T04:07:38;2.10;;;1.13;;
46308;SDS011;32037;50.820;6.494;2023-12-29T04:10:07;2.20;;;1.40;;
46308;SDS011;32037;50.820;6.494;2023-12-29T04:12:36;2.33;;;1.53;;
46308;SDS011;32037;50.820;6.494;2023-12-29T04:15:04;2.73;;;1.23;;
46308;SDS011;32037;50.820;6.494;2023-12-29T04:17:33;2.13;;;0.93;;
46308;SDS011;32037;50.820;6.494;2023-12-29T04:20:01;3.20;;;1.50;;
46308;SDS011;32037;50.820;6.494;2023-12-29T04:22:31;3.60;;;1.30;;
46308;SDS011;32037;50.820;6.494;2023-12-29T04:25:00;2.47;;;1.10;;
46308;SDS011;32037;50.820;6.494;2023-12-29T04:27:28;4.17;;;1.50;;
46308;SDS011;32037;50.820;6.494;2023-12-29T04:29:57;1.83;;;1.20;;
46308;SDS011;32037;50.820;6.494;2023-12-29T04:32:25;3.83;;;1.20;;
46308;SDS011;32037;50.820;6.494;2023-12-29T04:34:53;1.70;;;1.20;;
46308;SDS011;32037;50.820;6.494;2023-12-29T04:37:21;2.83;;;1.30;;
46308;SDS011;32037;50.820;6.494;2023-12-29T04:39:50;2.97;;;1.40;;
46308;SDS011;32037;50.820;6.494;2023-12-29T04:42:18;1.30;;;0.93;;
46308;SDS011;32037;50.820;6.494;2023-12-29T04:44:46;2.40;;;0.97;;
46308;SDS011;32037;50.820;6.494;2023-12-29T04:47:14;2.53;;;1.00;;
46308;SDS011;32037;50.820;6.494;2023-12-29T04:49:43;2.17;;;1.17;;
46308;SDS011;32037;50.820;6.494;2023-12-29T04:52:11;2.43;;;1.20;;
46308;SDS011;32037;50.820;6.494;2023-12-29T04:54:39;3.20;;;1.23;;
46308;SDS011;32037;50.820;6.494;2023-12-29T04:57:08;1.87;;;1.07;;
46308;SDS011;32037;50.820;6.494;2023-12-29T04:59:36;2.53;;;1.40;;
46308;SDS011;32037;50.820;6.494;2023-12-29T05:02:04;4.03;;;1.20;;
46308;SDS011;32037;50.820;6.494;2023-12-29T05:04:32;1.67;;;0.80;;
46308;SDS011;32037;50.820;6.494;2023-12-29T05:07:00;2.67;;;1.10;;
46308;SDS011;32037;50.820;6.494;2023-12-29T05:09:29;5.73;;;1.80;;
46308;SDS011;32037;50.820;6.494;2023-12-29T05:11:57;3.40;;;1.30;;
46308;SDS011;32037;50.820;6.494;2023-12-29T05:14:26;2.37;;;0.93;;
46308;SDS011;32037;50.820;6.494;2023-12-29T05:16:54;2.20;;;1.10;;
46308;SDS011;32037;50.820;6.494;2023-12-29T05:19:22;1.83;;;1.27;;
46308;SDS011;32037;50.820;6.494;2023-12-29T05:21:50;5.47;;;1.40;;
46308;SDS011;32037;50.820;6.494;2023-12-29T05:24:20;2.30;;;1.20;;
46308;SDS011;32037;50.820;6.494;2023-12-29T05:26:48;1.40;;;1.00;;
46308;SDS011;32037;50.820;6.494;2023-12-29T05:29:16;3.13;;;0.97;;
46308;SDS011;32037;50.820;6.494;2023-12-29T05:31:45;4.07;;;0.90;;
46308;SDS011;32037;50.820;6.494;2023-12-29T05:34:13;2.37;;;1.30;;
46308;SDS011;32037;50.820;6.494;2023-12-29T05:36:41;2.53;;;1.10;;
46308;SDS011;32037;50.820;6.494;2023-12-29T05:39:10;1.80;;;1.17;;
46308;SDS011;32037;50.820;6.494;2023-12-29T05:41:38;2.87;;;1.00;;
46308;SDS011;32037;50.820;6.494;2023-12-29T05:44:06;3.57;;;1.20;;
46308;SDS011;32037;50.820;6.494;2023-12-29T05:46:35;3.83;;;1.30;;
46308;SDS011;32037;50.820;6.494;2023-12-29T05:49:04;1.33;;;1.10;;
46308;SDS011;32037;50.820;6.494;2023-12-29T05:51:32;5.27;;;1.23;;
46308;SDS011;32037;50.820;6.494;2023-12-29T05:54:00;1.67;;;1.30;;
46308;SDS011;32037;50.820;6.494;2023-12-29T05:56:28;1.50;;;1.10;;
46308;SDS011;32037;50.820;6.494;2023-12-29T05:58:56;1.47;;;1.30;;
46308;SDS011;32037;50.820;6.494;2023-12-29T06:01:24;3.83;;;1.97;;
46308;SDS011;32037;50.820;6.494;2023-12-29T06:03:52;3.00;;;1.47;;
46308;SDS011;32037;50.820;6.494;2023-12-29T06:06:22;1.87;;;1.00;;
46308;SDS011;32037;50.820;6.494;2023-12-29T06:08:50;2.43;;;1.60;;
46308;SDS011;32037;50.820;6.494;2023-12-29T06:11:18;2.43;;;1.20;;
46308;SDS011;32037;50.820;6.494;2023-12-29T06:13:46;3.67;;;1.60;;
46308;SDS011;32037;50.820;6.494;2023-12-29T06:16:17;4.20;;;0.90;;
46308;SDS011;32037;50.820;6.494;2023-12-29T06:18:46;1.87;;;0.83;;
46308;SDS011;32037;50.820;6.494;2023-12-29T06:21:14;2.17;;;1.23;;
46308;SDS011;32037;50.820;6.494;2023-12-29T06:23:44;3.40;;;1.30;;
46308;SDS011;32037;50.820;6.494;2023-12-29T06:26:15;4.53;;;1.67;;
46308;SDS011;32037;50.820;6.494;2023-12-29T06:28:44;2.03;;;1.00;;
46308;SDS011;32037;50.820;6.494;2023-12-29T06:31:12;2.60;;;1.00;;
46308;SDS011;32037;50.820;6.494;2023-12-29T06:33:41;4.13;;;1.40;;
46308;SDS011;32037;50.820;6.494;2023-12-29T06:36:09;2.93;;;0.87;;
46308;SDS011;32037;50.820;6.494;2023-12-29T06:38:37;1.70;;;1.03;;
46308;SDS011;32037;50.820;6.494;2023-12-29T06:41:07;1.87;;;0.77;;
46308;SDS011;32037;50.820;6.494;2023-12-29T06:43:35;2.10;;;1.07;;
46308;SDS011;32037;50.820;6.494;2023-12-29T06:46:03;3.13;;;1.00;;
46308;SDS011;32037;50.820;6.494;2023-12-29T06:48:31;3.23;;;1.00;;
46308;SDS011;32037;50.820;6.494;2023-12-29T06:50:59;3.90;;;1.10;;
46308;SDS011;32037;50.820;6.494;2023-12-29T06:53:27;1.70;;;1.00;;
46308;SDS011;32037;50.820;6.494;2023-12-29T06:55:55;2.27;;;0.97;;
46308;SDS011;32037;50.820;6.494;2023-12-29T06:58:24;3.00;;;1.27;;
46308;SDS011;32037;50.820;6.494;2023-12-29T07:00:53;1.83;;;1.00;;
46308;SDS011;32037;50.820;6.494;2023-12-29T07:03:21;5.00;;;1.50;;
46308;SDS011;32037;50.820;6.494;2023-12-29T07:05:49;3.70;;;1.00;;
46308;SDS011;32037;50.820;6.494;2023-12-29T07:08:17;2.70;;;0.80;;
46308;SDS011;32037;50.820;6.494;2023-12-29T07:10:45;1.80;;;0.90;;
46308;SDS011;32037;50.820;6.494;2023-12-29T07:13:16;2.00;;;0.60;;
46308;SDS011;32037;50.820;6.494;2023-12-29T07:15:47;2.27;;;1.20;;
46308;SDS011;32037;50.820;6.494;2023-12-29T07:18:15;1.90;;;0.67;;
46308;SDS011;32037;50.820;6.494;2023-12-29T07:20:44;1.33;;;0.80;;
46308;SDS011;32037;50.820;6.494;2023-12-29T07:23:12;1.40;;;0.60;;
46308;SDS011;32037;50.820;6.494;2023-12-29T07:25:40;3.57;;;1.17;;
46308;SDS011;32037;50.820;6.494;2023-12-29T07:28:08;1.87;;;0.90;;
46308;SDS011;32037;50.820;6.494;2023-12-29T07:30:36;1.70;;;1.30;;
46308;SDS011;32037;50.820;6.494;2023-12-29T07:33:06;6.63;;;1.00;;
46308;SDS011;32037;50.820;6.494;2023-12-29T07:35:34;1.80;;;0.90;;
46308;SDS011;32037;50.820;6.494;2023-12-29T07:38:02;3.00;;;1.03;;
46308;SDS011;32037;50.820;6.494;2023-12-29T07:40:30;2.67;;;1.10;;
46308;SDS011;32037;50.820;6.494;2023-12-29T07:42:58;2.37;;;1.00;;
46308;SDS011;32037;50.820;6.494;2023-12-29T07:45:26;1.50;;;1.00;;
46308;SDS011;32037;50.820;6.494;2023-12-29T07:47:55;1.43;;;0.90;;
46308;SDS011;32037;50.820;6.494;2023-12-29T07:50:25;1.53;;;0.70;;
46308;SDS011;32037;50.820;6.494;2023-12-29T07:52:53;2.90;;;0.70;;
46308;SDS011;32037;50.820;6.494;2023-12-29T07:55:21;2.97;;;1.10;;
46308;SDS011;32037;50.820;6.494;2023-12-29T07:57:49;5.50;;;1.90;;
46308;SDS011;32037;50.820;6.494;2023-12-29T08:00:18;3.37;;;1.03;;
46308;SDS011;32037;50.820;6.494;2023-12-29T08:02:46;1.40;;;0.90;;
46308;SDS011;32037;50.820;6.494;2023-12-29T08:05:15;2.73;;;1.13;;
46308;SDS011;32037;50.820;6.494;2023-12-29T08:07:44;2.10;;;0.90;;
46308;SDS011;32037;50.820;6.494;2023-12-29T08:10:12;1.50;;;0.70;;
46308;SDS011;32037;50.820;6.494;2023-12-29T08:12:40;2.70;;;1.07;;
46308;SDS011;32037;50.820;6.494;2023-12-29T08:15:09;2.50;;;1.20;;
46308;SDS011;32037;50.820;6.494;2023-12-29T08:17:37;2.40;;;0.80;;
46308;SDS011;32037;50.820;6.494;2023-12-29T08:20:06;1.83;;;0.90;;
46308;SDS011;32037;50.820;6.494;2023-12-29T08:22:35;2.53;;;1.10;;
46308;SDS011;32037;50.820;6.494;2023-12-29T08:25:05;1.90;;;0.93;;
46308;SDS011;32037;50.820;6.494;2023-12-29T08:27:34;1.60;;;0.73;;
46308;SDS011;32037;50.820;6.494;2023-12-29T08:30:03;2.47;;;1.07;;
46308;SDS011;32037;50.820;6.494;2023-12-29T08:32:32;3.63;;;0.93;;
46308;SDS011;32037;50.820;6.494;2023-12-29T08:35:00;1.73;;;0.80;;
46308;SDS011;32037;50.820;6.494;2023-12-29T08:37:28;2.17;;;0.90;;
46308;SDS011;32037;50.820;6.494;2023-12-29T08:39:56;3.20;;;1.20;;
46308;SDS011;32037;50.820;6.494;2023-12-29T08:42:29;3.33;;;1.17;;
46308;SDS011;32037;50.820;6.494;2023-12-29T08:44:58;2.20;;;0.80;;
46308;SDS011;32037;50.820;6.494;2023-12-29T08:47:26;3.50;;;0.97;;
46308;SDS011;32037;50.820;6.494;2023-12-29T08:49:54;2.13;;;0.70;;
46308;SDS011;32037;50.820;6.494;2023-12-29T08:52:22;2.23;;;0.90;;
46308;SDS011;32037;50.820;6.494;2023-12-29T08:54:50;2.27;;;0.90;;
46308;SDS011;32037;50.820;6.494;2023-12-29T08:57:18;2.73;;;1.00;;
46308;SDS011;32037;50.820;6.494;2023-12-29T08:59:47;1.73;;;0.90;;
46308;SDS011;32037;50.820;6.494;2023-12-29T09:02:16;2.70;;;1.33;;
46308;SDS011;32037;50.820;6.494;2023-12-29T09:04:44;4.90;;;1.30;;
46308;SDS011;32037;50.820;6.494;2023-12-29T09:07:12;2.17;;;0.93;;
46308;SDS011;32037;50.820;6.494;2023-12-29T09:09:40;2.50;;;1.17;;
46308;SDS011;32037;50.820;6.494;2023-12-29T09:12:08;2.43;;;1.40;;
46308;SDS011;32037;50.820;6.494;2023-12-29T09:14:36;4.37;;;1.00;;
46308;SDS011;32037;50.820;6.494;2023-12-29T09:17:06;3.50;;;1.10;;
46308;SDS011;32037;50.820;6.494;2023-12-29T09:19:34;3.70;;;1.40;;
46308;SDS011;32037;50.820;6.494;2023-12-29T09:22:06;1.83;;;0.73;;
46308;SDS011;32037;50.820;6.494;2023-12-29T09:24:35;2.80;;;1.13;;
46308;SDS011;32037;50.820;6.494;2023-12-29T09:27:03;3.60;;;1.37;;
46308;SDS011;32037;50.820;6.494;2023-12-29T09:29:31;3.90;;;0.90;;
46308;SDS011;32037;50.820;6.494;2023-12-29T09:31:59;4.70;;;1.10;;
46308;SDS011;32037;50.820;6.494;2023-12-29T09:34:29;3.13;;;1.07;;
46308;SDS011;32037;50.820;6.494;2023-12-29T09:36:57;2.67;;;1.13;;
46308;SDS011;32037;50.820;6.494;2023-12-29T09:39:25;3.07;;;0.97;;
46308;SDS011;32037;50.820;6.494;2023-12-29T09:41:58;3.70;;;0.90;;
46308;SDS011;32037;50.820;6.494;2023-12-29T09:44:28;2.70;;;0.80;;
46308;SDS011;32037;50.820;6.494;2023-12-29T09:47:01;2.27;;;0.77;;
46308;SDS011;32037;50.820;6.494;2023-12-29T09:49:35;1.60;;;0.80;;
46308;SDS011;32037;50.820;6.494;2023-12-29T09:52:07;4.17;;;1.17;;
46308;SDS011;32037;50.820;6.494;2023-12-29T09:54:37;2.20;;;1.00;;
46308;SDS011;32037;50.820;6.494;2023-12-29T09:57:07;2.27;;;0.80;;
46308;SDS011;32037;50.820;6.494;2023-12-29T09:59:36;1.30;;;0.70;;
46308;SDS011;32037;50.820;6.494;2023-12-29T10:02:10;1.70;;;0.80;;
46308;SDS011;32037;50.820;6.494;2023-12-29T10:04:43;2.23;;;1.30;;
46308;SDS011;32037;50.820;6.494;2023-12-29T10:07:13;2.30;;;0.90;;
46308;SDS011;32037;50.820;6.494;2023-12-29T10:09:52;4.00;;;0.83;;
46308;SDS011;32037;50.820;6.494;2023-12-29T10:12:24;2.63;;;0.90;;
46308;SDS011;32037;50.820;6.494;2023-12-29T10:14:57;2.93;;;1.00;;
46308;SDS011;32037;50.820;6.494;2023-12-29T10:17:36;2.60;;;0.80;;
46308;SDS011;32037;50.820;6.494;2023-12-29T10:20:12;2.00;;;0.80;;
46308;SDS011;32037;50.820;6.494;2023-12-29T10:22:51;1.70;;;0.90;;
46308;SDS011;32037;50.820;6.494;2023-12-29T10:25:26;2.00;;;0.77;;
46308;SDS011;32037;50.820;6.494;2023-12-29T10:27:55;1.73;;;1.20;;
46308;SDS011;32037;50.820;6.494;2023-12-29T10:30:24;1.67;;;0.70;;
46308;SDS011;32037;50.820;6.494;2023-12-29T10:33:00;2.20;;;0.87;;
46308;SDS011;32037;50.820;6.494;2023-12-29T10:35:32;3.80;;;0.70;;
46308;SDS011;32037;50.820;6.494;2023-12-29T10:38:07;2.40;;;0.63;;
46308;SDS011;32037;50.820;6.494;2023-12-29T10:40:37;1.73;;;0.80;;
46308;SDS011;32037;50.820;6.494;2023-12-29T10:43:05;1.40;;;0.80;;
46308;SDS011;32037;50.820;6.494;2023-12-29T10:45:35;2.37;;;1.20;;
46308;SDS011;32037;50.820;6.494;2023-12-29T10:48:04;2.30;;;0.77;;
46308;SDS011;32037;50.820;6.494;2023-12-29T10:50:43;2.43;;;0.70;;
46308;SDS011;32037;50.820;6.494;2023-12-29T10:53:12;1.73;;;0.83;;
46308;SDS011;32037;50.820;6.494;2023-12-29T10:55:41;1.80;;;0.73;;
46308;SDS011;32037;50.820;6.494;2023-12-29T10:58:09;1.63;;;0.70;;
46308;SDS011;32037;50.820;6.494;2023-12-29T11:00:37;1.50;;;0.80;;
46308;SDS011;32037;50.820;6.494;2023-12-29T11:03:05;1.13;;;0.63;;
46308;SDS011;32037;50.820;6.494;2023-12-29T11:05:35;2.90;;;1.17;;
46308;SDS011;32037;50.820;6.494;2023-12-29T11:08:05;1.43;;;0.73;;
46308;SDS011;32037;50.820;6.494;2023-12-29T11:10:43;1.63;;;0.73;;
46308;SDS011;32037;50.820;6.494;2023-12-29T11:13:12;1.73;;;0.80;;
46308;SDS011;32037;50.820;6.494;2023-12-29T11:15:46;1.90;;;0.43;;
46308;SDS011;32037;50.820;6.494;2023-12-29T11:18:14;2.10;;;0.93;;
46308;SDS011;32037;50.820;6.494;2023-12-29T11:20:44;1.40;;;0.80;;
46308;SDS011;32037;50.820;6.494;2023-12-29T11:23:14;2.07;;;0.60;;
46308;SDS011;32037;50.820;6.494;2023-12-29T11:25:44;1.83;;;0.90;;
46308;SDS011;32037;50.820;6.494;2023-12-29T11:28:12;2.30;;;0.70;;
46308;SDS011;32037;50.820;6.494;2023-12-29T11:30:42;3.17;;;0.80;;
46308;SDS011;32037;50.820;6.494;2023-12-29T11:33:14;1.50;;;0.70;;
46308;SDS011;32037;50.820;6.494;2023-12-29T11:35:47;1.67;;;0.87;;
46308;SDS011;32037;50.820;6.494;2023-12-29T11:38:33;1.13;;;0.60;;
46308;SDS011;32037;50.820;6.494;2023-12-29T11:41:13;1.63;;;0.80;;
46308;SDS011;32037;50.820;6.494;2023-12-29T11:43:55;1.40;;;0.73;;
46308;SDS011;32037;50.820;6.494;2023-12-29T11:46:34;1.50;;;0.70;;
46308;SDS011;32037;50.820;6.494;2023-12-29T11:49:03;1.30;;;0.67;;
46308;SDS011;32037;50.820;6.494;2023-12-29T11:51:34;1.20;;;0.53;;
46308;SDS011;32037;50.820;6.494;2023-12-29T11:54:06;1.30;;;0.60;;
46308;SDS011;32037;50.820;6.494;2023-12-29T11:56:35;1.57;;;0.63;;
46308;SDS011;32037;50.820;6.494;2023-12-29T11:59:14;2.10;;;0.60;;
46308;SDS011;32037;50.820;6.494;2023-12-29T12:01:43;1.37;;;0.47;;
46308;SDS011;32037;50.820;6.494;2023-12-29T12:07:08;1.87;;;0.90;;
46308;SDS011;32037;50.820;6.494;2023-12-29T12:09:41;1.20;;;0.40;;
46308;SDS011;32037;50.820;6.494;2023-12-29T12:12:10;1.40;;;0.70;;
46308;SDS011;32037;50.820;6.494;2023-12-29T12:14:43;1.50;;;0.70;;
46308;SDS011;32037;50.820;6.494;2023-12-29T12:17:26;1.53;;;0.60;;
46308;SDS011;32037;50.820;6.494;2023-12-29T12:19:56;1.73;;;1.10;;
46308;SDS011;32037;50.820;6.494;2023-12-29T12:22:25;2.13;;;0.70;;
46308;SDS011;32037;50.820;6.494;2023-12-29T12:25:00;1.10;;;0.53;;
46308;SDS011;32037;50.820;6.494;2023-12-29T12:27:30;1.23;;;0.67;;
46308;SDS011;32037;50.820;6.494;2023-12-29T12:29:59;1.70;;;0.70;;
46308;SDS011;32037;50.820;6.494;2023-12-29T12:32:28;1.20;;;0.40;;
46308;SDS011;32037;50.820;6.494;2023-12-29T12:34:56;1.67;;;0.60;;
46308;SDS011;32037;50.820;6.494;2023-12-29T12:37:25;3.00;;;1.20;;
46308;SDS011;32037;50.820;6.494;2023-12-29T12:39:54;1.80;;;0.87;;
46308;SDS011;32037;50.820;6.494;2023-12-29T12:42:24;1.00;;;0.47;;
46308;SDS011;32037;50.820;6.494;2023-12-29T12:44:54;2.70;;;0.73;;
46308;SDS011;32037;50.820;6.494;2023-12-29T12:47:25;1.50;;;0.60;;
46308;SDS011;32037;50.820;6.494;2023-12-29T12:49:59;1.27;;;0.50;;
46308;SDS011;32037;50.820;6.494;2023-12-29T12:52:31;1.00;;;0.50;;
46308;SDS011;32037;50.820;6.494;2023-12-29T12:54:59;2.47;;;0.70;;
46308;SDS011;32037;50.820;6.494;2023-12-29T12:57:30;1.80;;;0.50;;
46308;SDS011;32037;50.820;6.494;2023-12-29T12:59:59;1.37;;;0.60;;
46308;SDS011;32037;50.820;6.494;2023-12-29T13:02:29;1.30;;;0.60;;
46308;SDS011;32037;50.820;6.494;2023-12-29T13:04:59;1.40;;;0.57;;
46308;SDS011;32037;50.820;6.494;2023-12-29T13:07:31;1.87;;;0.60;;
46308;SDS011;32037;50.820;6.494;2023-12-29T13:10:00;1.40;;;0.63;;
46308;SDS011;32037;50.820;6.494;2023-12-29T13:12:31;1.77;;;0.70;;
46308;SDS011;32037;50.820;6.494;2023-12-29T13:15:04;1.00;;;0.40;;
46308;SDS011;32037;50.820;6.494;2023-12-29T13:17:34;1.87;;;0.70;;
46308;SDS011;32037;50.820;6.494;2023-12-29T13:20:03;1.10;;;0.40;;
46308;SDS011;32037;50.820;6.494;2023-12-29T13:22:33;2.83;;;0.60;;
46308;SDS011;32037;50.820;6.494;2023-12-29T13:25:01;1.63;;;0.73;;
46308;SDS011;32037;50.820;6.494;2023-12-29T13:27:37;1.00;;;0.40;;
46308;SDS011;32037;50.820;6.494;2023-12-29T13:30:07;1.30;;;0.70;;
46308;SDS011;32037;50.820;6.494;2023-12-29T13:32:35;1.10;;;0.60;;
46308;SDS011;32037;50.820;6.494;2023-12-29T13:35:06;1.20;;;0.43;;
46308;SDS011;32037;50.820;6.494;2023-12-29T13:37:42;1.40;;;0.60;;
46308;SDS011;32037;50.820;6.494;2023-12-29T13:40:14;1.07;;;0.50;;
46308;SDS011;32037;50.820;6.494;2023-12-29T13:42:51;2.80;;;0.57;;
46308;SDS011;32037;50.820;6.494;2023-12-29T13:45:25;2.70;;;0.50;;
46308;SDS011;32037;50.820;6.494;2023-12-29T13:47:54;2.20;;;0.70;;
46308;SDS011;32037;50.820;6.494;2023-12-29T13:50:23;1.43;;;0.60;;
46308;SDS011;32037;50.820;6.494;2023-12-29T13:52:52;1.07;;;0.50;;
46308;SDS011;32037;50.820;6.494;2023-12-29T13:55:20;1.60;;;0.73;;
46308;SDS011;32037;50.820;6.494;2023-12-29T13:57:51;1.80;;;0.80;;
46308;SDS011;32037;50.820;6.494;2023-12-29T14:00:20;1.30;;;0.57;;
46308;SDS011;32037;50.820;6.494;2023-12-29T14:02:57;1.27;;;0.60;;
46308;SDS011;32037;50.820;6.494;2023-12-29T14:05:31;1.00;;;0.50;;
46308;SDS011;32037;50.820;6.494;2023-12-29T14:08:05;1.10;;;0.60;;
46308;SDS011;32037;50.820;6.494;2023-12-29T14:10:37;1.10;;;0.40;;
46308;SDS011;32037;50.820;6.494;2023-12-29T14:13:08;1.10;;;0.50;;
46308;SDS011;32037;50.820;6.494;2023-12-29T14:15:38;2.03;;;0.60;;
46308;SDS011;32037;50.820;6.494;2023-12-29T14:18:08;1.00;;;0.47;;
46308;SDS011;32037;50.820;6.494;2023-12-29T14:20:49;1.00;;;0.40;;
46308;SDS011;32037;50.820;6.494;2023-12-29T14:23:17;1.40;;;0.60;;
46308;SDS011;32037;50.820;6.494;2023-12-29T14:25:46;1.20;;;0.50;;
46308;SDS011;32037;50.820;6.494;2023-12-29T14:28:16;1.20;;;0.60;;
46308;SDS011;32037;50.820;6.494;2023-12-29T14:30:45;1.00;;;0.50;;
46308;SDS011;32037;50.820;6.494;2023-12-29T14:33:13;1.40;;;0.50;;
46308;SDS011;32037;50.820;6.494;2023-12-29T14:35:42;2.73;;;0.67;;
46308;SDS011;32037;50.820;6.494;2023-12-29T14:38:10;1.00;;;0.50;;
46308;SDS011;32037;50.820;6.494;2023-12-29T14:40:44;1.50;;;0.60;;
46308;SDS011;32037;50.820;6.494;2023-12-29T14:43:12;1.47;;;0.53;;
46308;SDS011;32037;50.820;6.494;2023-12-29T14:45:42;1.07;;;0.40;;
46308;SDS011;32037;50.820;6.494;2023-12-29T14:48:10;1.83;;;0.50;;
46308;SDS011;32037;50.820;6.494;2023-12-29T14:50:38;1.37;;;0.50;;
46308;SDS011;32037;50.820;6.494;2023-12-29T14:53:11;1.17;;;0.60;;
46308;SDS011;32037;50.820;6.494;2023-12-29T14:55:39;4.10;;;0.63;;
46308;SDS011;32037;50.820;6.494;2023-12-29T14:58:07;1.00;;;0.40;;
46308;SDS011;32037;50.820;6.494;2023-12-29T15:00:36;1.57;;;0.67;;
46308;SDS011;32037;50.820;6.494;2023-12-29T15:03:05;1.40;;;0.50;;
46308;SDS011;32037;50.820;6.494;2023-12-29T15:05:33;1.30;;;0.50;;